sensor_id;sensor_type;location;lat;lon;timestamp;P1;durP1;ratioP1;P2;durP2;ratioP2
84500;SDS011;74725;44.210;17.906;2024-03-29T00:02:03;9.45;;;2.10;;
84500;SDS011;74725;44.210;17.906;2024-03-29T00:04:29;8.73;;;2.00;;
84500;SDS011;74725;44.210;17.906;2024-03-29T00:06:54;4.68;;;1.75;;
84500;SDS011;74725;44.210;17.906;2024-03-29T00:09:20;5.90;;;1.98;;
84500;SDS011;74725;44.210;17.906;2024-03-29T00:11:46;7.47;;;2.75;;
84500;SDS011;74725;44.210;17.906;2024-03-29T00:14:11;8.18;;;1.90;;
84500;SDS011;74725;44.210;17.906;2024-03-29T00:16:37;5.78;;;1.52;;
84500;SDS011;74725;44.210;17.906;2024-03-29T00:19:02;5.32;;;1.70;;
84500;SDS011;74725;44.210;17.906;2024-03-29T00:21:28;7.22;;;2.05;;
84500;SDS011;74725;44.210;17.906;2024-03-29T00:23:53;7.28;;;2.00;;
84500;SDS011;74725;44.210;17.906;2024-03-29T00:26:19;8.95;;;2.17;;
84500;SDS011;74725;44.210;17.906;2024-03-29T00:28:44;7.85;;;2.05;;
84500;SDS011;74725;44.210;17.906;2024-03-29T00:31:10;9.68;;;2.15;;
84500;SDS011;74725;44.210;17.906;2024-03-29T00:33:35;8.13;;;2.15;;
84500;SDS011;74725;44.210;17.906;2024-03-29T00:36:01;5.57;;;1.90;;
84500;SDS011;74725;44.210;17.906;2024-03-29T00:38:27;6.28;;;1.90;;
84500;SDS011;74725;44.210;17.906;2024-03-29T00:40:53;10.40;;;2.05;;
84500;SDS011;74725;44.210;17.906;2024-03-29T00:43:18;6.85;;;2.00;;
84500;SDS011;74725;44.210;17.906;2024-03-29T00:45:44;9.60;;;2.20;;
84500;SDS011;74725;44.210;17.906;2024-03-29T00:48:09;9.07;;;2.28;;
84500;SDS011;74725;44.210;17.906;2024-03-29T00:50:35;9.13;;;2.10;;
84500;SDS011;74725;44.210;17.906;2024-03-29T00:53:03;6.47;;;1.67;;
84500;SDS011;74725;44.210;17.906;2024-03-29T00:55:29;8.20;;;2.38;;
84500;SDS011;74725;44.210;17.906;2024-03-29T00:57:55;10.02;;;2.50;;
84500;SDS011;74725;44.210;17.906;2024-03-29T01:00:21;17.05;;;4.10;;
84500;SDS011;74725;44.210;17.906;2024-03-29T01:02:46;8.65;;;2.97;;
84500;SDS011;74725;44.210;17.906;2024-03-29T01:05:12;7.50;;;2.70;;
84500;SDS011;74725;44.210;17.906;2024-03-29T01:07:41;11.73;;;3.45;;
84500;SDS011;74725;44.210;17.906;2024-03-29T01:10:07;8.40;;;2.57;;
84500;SDS011;74725;44.210;17.906;2024-03-29T01:12:34;8.52;;;3.45;;
84500;SDS011;74725;44.210;17.906;2024-03-29T01:15:05;13.77;;;3.03;;
84500;SDS011;74725;44.210;17.906;2024-03-29T01:17:31;12.07;;;3.65;;
84500;SDS011;74725;44.210;17.906;2024-03-29T01:19:57;8.05;;;2.70;;
84500;SDS011;74725;44.210;17.906;2024-03-29T01:22:22;13.77;;;3.40;;
84500;SDS011;74725;44.210;17.906;2024-03-29T01:24:48;13.95;;;3.72;;
84500;SDS011;74725;44.210;17.906;2024-03-29T01:27:13;13.05;;;4.40;;
84500;SDS011;74725;44.210;17.906;2024-03-29T01:29:39;13.02;;;4.75;;
84500;SDS011;74725;44.210;17.906;2024-03-29T01:32:04;15.23;;;5.57;;
84500;SDS011;74725;44.210;17.906;2024-03-29T01:34:31;11.77;;;5.28;;
84500;SDS011;74725;44.210;17.906;2024-03-29T01:36:56;14.50;;;5.82;;
84500;SDS011;74725;44.210;17.906;2024-03-29T01:39:23;14.48;;;6.00;;
84500;SDS011;74725;44.210;17.906;2024-03-29T01:41:54;16.38;;;5.05;;
84500;SDS011;74725;44.210;17.906;2024-03-29T01:44:19;14.65;;;4.50;;
84500;SDS011;74725;44.210;17.906;2024-03-29T01:46:45;11.75;;;4.15;;
84500;SDS011;74725;44.210;17.906;2024-03-29T01:49:12;8.50;;;3.13;;
84500;SDS011;74725;44.210;17.906;2024-03-29T01:51:38;8.10;;;2.30;;
84500;SDS011;74725;44.210;17.906;2024-03-29T01:54:08;5.15;;;2.42;;
84500;SDS011;74725;44.210;17.906;2024-03-29T01:56:35;10.52;;;3.97;;
84500;SDS011;74725;44.210;17.906;2024-03-29T01:59:03;9.85;;;3.15;;
84500;SDS011;74725;44.210;17.906;2024-03-29T02:01:29;10.07;;;2.83;;
84500;SDS011;74725;44.210;17.906;2024-03-29T02:03:56;6.57;;;2.58;;
84500;SDS011;74725;44.210;17.906;2024-03-29T02:06:22;7.53;;;2.20;;
84500;SDS011;74725;44.210;17.906;2024-03-29T02:08:49;7.05;;;2.47;;
84500;SDS011;74725;44.210;17.906;2024-03-29T02:13:44;7.57;;;2.40;;
84500;SDS011;74725;44.210;17.906;2024-03-29T02:16:10;6.25;;;2.42;;
84500;SDS011;74725;44.210;17.906;2024-03-29T02:18:35;8.43;;;2.45;;
84500;SDS011;74725;44.210;17.906;2024-03-29T02:21:01;6.18;;;2.30;;
84500;SDS011;74725;44.210;17.906;2024-03-29T02:23:27;10.13;;;2.10;;
84500;SDS011;74725;44.210;17.906;2024-03-29T02:25:55;9.02;;;2.17;;
84500;SDS011;74725;44.210;17.906;2024-03-29T02:28:21;7.38;;;2.63;;
84500;SDS011;74725;44.210;17.906;2024-03-29T02:30:51;5.47;;;2.20;;
84500;SDS011;74725;44.210;17.906;2024-03-29T02:33:17;4.93;;;2.00;;
84500;SDS011;74725;44.210;17.906;2024-03-29T02:35:43;5.22;;;2.10;;
84500;SDS011;74725;44.210;17.906;2024-03-29T02:38:09;4.95;;;2.30;;
84500;SDS011;74725;44.210;17.906;2024-03-29T02:40:34;6.57;;;2.50;;
84500;SDS011;74725;44.210;17.906;2024-03-29T02:43:00;8.70;;;2.78;;
84500;SDS011;74725;44.210;17.906;2024-03-29T02:45:26;5.43;;;2.78;;
84500;SDS011;74725;44.210;17.906;2024-03-29T02:47:51;10.25;;;3.28;;
84500;SDS011;74725;44.210;17.906;2024-03-29T02:50:17;6.25;;;2.40;;
84500;SDS011;74725;44.210;17.906;2024-03-29T02:52:43;6.70;;;2.70;;
84500;SDS011;74725;44.210;17.906;2024-03-29T02:55:08;9.80;;;2.90;;
84500;SDS011;74725;44.210;17.906;2024-03-29T02:57:36;8.52;;;2.88;;
84500;SDS011;74725;44.210;17.906;2024-03-29T03:00:05;9.80;;;2.40;;
84500;SDS011;74725;44.210;17.906;2024-03-29T03:02:31;9.07;;;2.40;;
84500;SDS011;74725;44.210;17.906;2024-03-29T03:04:57;7.35;;;2.60;;
84500;SDS011;74725;44.210;17.906;2024-03-29T03:07:24;6.78;;;2.63;;
84500;SDS011;74725;44.210;17.906;2024-03-29T03:10:08;5.90;;;2.15;;
84500;SDS011;74725;44.210;17.906;2024-03-29T03:12:52;4.65;;;2.22;;
84500;SDS011;74725;44.210;17.906;2024-03-29T03:15:18;6.53;;;2.17;;
84500;SDS011;74725;44.210;17.906;2024-03-29T03:17:43;3.85;;;2.20;;
84500;SDS011;74725;44.210;17.906;2024-03-29T03:20:09;6.57;;;2.10;;
84500;SDS011;74725;44.210;17.906;2024-03-29T03:22:35;4.18;;;2.17;;
84500;SDS011;74725;44.210;17.906;2024-03-29T03:25:01;8.38;;;2.25;;
84500;SDS011;74725;44.210;17.906;2024-03-29T03:27:26;6.32;;;2.22;;
84500;SDS011;74725;44.210;17.906;2024-03-29T03:29:52;9.27;;;2.60;;
84500;SDS011;74725;44.210;17.906;2024-03-29T03:32:17;5.47;;;2.50;;
84500;SDS011;74725;44.210;17.906;2024-03-29T03:34:43;9.45;;;4.72;;
84500;SDS011;74725;44.210;17.906;2024-03-29T03:37:08;10.60;;;5.07;;
84500;SDS011;74725;44.210;17.906;2024-03-29T03:39:34;7.93;;;4.32;;
84500;SDS011;74725;44.210;17.906;2024-03-29T03:41:59;7.05;;;4.13;;
84500;SDS011;74725;44.210;17.906;2024-03-29T03:44:25;11.63;;;3.90;;
84500;SDS011;74725;44.210;17.906;2024-03-29T03:46:51;16.30;;;4.80;;
84500;SDS011;74725;44.210;17.906;2024-03-29T03:49:17;9.73;;;4.85;;
84500;SDS011;74725;44.210;17.906;2024-03-29T03:51:42;10.73;;;4.30;;
84500;SDS011;74725;44.210;17.906;2024-03-29T03:54:08;13.35;;;4.43;;
84500;SDS011;74725;44.210;17.906;2024-03-29T03:56:33;10.35;;;4.25;;
84500;SDS011;74725;44.210;17.906;2024-03-29T03:59:00;10.23;;;4.68;;
84500;SDS011;74725;44.210;17.906;2024-03-29T04:01:26;14.48;;;4.80;;
84500;SDS011;74725;44.210;17.906;2024-03-29T04:03:51;12.98;;;4.68;;
84500;SDS011;74725;44.210;17.906;2024-03-29T04:06:17;7.95;;;4.25;;
84500;SDS011;74725;44.210;17.906;2024-03-29T04:08:45;13.15;;;4.80;;
84500;SDS011;74725;44.210;17.906;2024-03-29T04:11:11;15.23;;;4.75;;
84500;SDS011;74725;44.210;17.906;2024-03-29T04:13:36;12.20;;;5.22;;
84500;SDS011;74725;44.210;17.906;2024-03-29T04:16:04;18.00;;;6.28;;
84500;SDS011;74725;44.210;17.906;2024-03-29T04:18:31;14.25;;;7.05;;
84500;SDS011;74725;44.210;17.906;2024-03-29T04:20:58;9.65;;;5.20;;
84500;SDS011;74725;44.210;17.906;2024-03-29T04:23:24;13.35;;;5.57;;
84500;SDS011;74725;44.210;17.906;2024-03-29T04:25:53;13.70;;;5.03;;
84500;SDS011;74725;44.210;17.906;2024-03-29T04:28:22;11.63;;;4.65;;
84500;SDS011;74725;44.210;17.906;2024-03-29T04:30:54;22.45;;;8.07;;
84500;SDS011;74725;44.210;17.906;2024-03-29T04:33:21;10.45;;;4.80;;
84500;SDS011;74725;44.210;17.906;2024-03-29T04:38:22;6.65;;;3.05;;
84500;SDS011;74725;44.210;17.906;2024-03-29T04:40:51;8.82;;;3.80;;
84500;SDS011;74725;44.210;17.906;2024-03-29T04:43:19;8.93;;;4.78;;
84500;SDS011;74725;44.210;17.906;2024-03-29T04:45:46;9.57;;;4.40;;
84500;SDS011;74725;44.210;17.906;2024-03-29T04:48:12;12.20;;;5.20;;
84500;SDS011;74725;44.210;17.906;2024-03-29T04:50:38;12.73;;;5.22;;
84500;SDS011;74725;44.210;17.906;2024-03-29T04:53:04;10.90;;;4.30;;
84500;SDS011;74725;44.210;17.906;2024-03-29T04:55:30;7.78;;;3.67;;
84500;SDS011;74725;44.210;17.906;2024-03-29T04:57:55;13.27;;;4.93;;
84500;SDS011;74725;44.210;17.906;2024-03-29T05:00:21;25.13;;;11.32;;
84500;SDS011;74725;44.210;17.906;2024-03-29T05:02:47;80.60;;;35.95;;
84500;SDS011;74725;44.210;17.906;2024-03-29T05:05:12;103.50;;;39.90;;
84500;SDS011;74725;44.210;17.906;2024-03-29T05:07:38;90.78;;;37.90;;
84500;SDS011;74725;44.210;17.906;2024-03-29T05:10:04;80.82;;;34.42;;
84500;SDS011;74725;44.210;17.906;2024-03-29T05:15:00;70.00;;;31.00;;
84500;SDS011;74725;44.210;17.906;2024-03-29T05:17:25;49.92;;;24.00;;
84500;SDS011;74725;44.210;17.906;2024-03-29T05:19:55;40.25;;;20.13;;
84500;SDS011;74725;44.210;17.906;2024-03-29T05:22:20;26.15;;;11.73;;
84500;SDS011;74725;44.210;17.906;2024-03-29T05:24:46;12.95;;;6.18;;
84500;SDS011;74725;44.210;17.906;2024-03-29T05:27:12;14.30;;;6.15;;
84500;SDS011;74725;44.210;17.906;2024-03-29T05:29:38;17.55;;;6.53;;
84500;SDS011;74725;44.210;17.906;2024-03-29T05:32:04;17.23;;;6.80;;
84500;SDS011;74725;44.210;17.906;2024-03-29T05:34:30;9.70;;;5.60;;
84500;SDS011;74725;44.210;17.906;2024-03-29T05:36:56;14.63;;;6.60;;
84500;SDS011;74725;44.210;17.906;2024-03-29T05:39:22;17.73;;;7.57;;
84500;SDS011;74725;44.210;17.906;2024-03-29T05:41:47;17.95;;;7.25;;
84500;SDS011;74725;44.210;17.906;2024-03-29T05:44:13;17.85;;;10.15;;
84500;SDS011;74725;44.210;17.906;2024-03-29T05:46:38;17.20;;;7.72;;
84500;SDS011;74725;44.210;17.906;2024-03-29T05:49:05;14.88;;;7.72;;
84500;SDS011;74725;44.210;17.906;2024-03-29T05:51:32;13.68;;;7.60;;
84500;SDS011;74725;44.210;17.906;2024-03-29T05:53:59;22.65;;;8.25;;
84500;SDS011;74725;44.210;17.906;2024-03-29T05:56:25;14.88;;;7.30;;
84500;SDS011;74725;44.210;17.906;2024-03-29T05:58:50;15.25;;;6.82;;
84500;SDS011;74725;44.210;17.906;2024-03-29T06:01:16;19.63;;;7.35;;
84500;SDS011;74725;44.210;17.906;2024-03-29T06:03:41;13.52;;;6.68;;
84500;SDS011;74725;44.210;17.906;2024-03-29T06:06:07;13.70;;;6.35;;
84500;SDS011;74725;44.210;17.906;2024-03-29T06:08:37;12.52;;;7.30;;
84500;SDS011;74725;44.210;17.906;2024-03-29T06:11:02;13.00;;;5.40;;
84500;SDS011;74725;44.210;17.906;2024-03-29T06:13:28;11.55;;;6.22;;
84500;SDS011;74725;44.210;17.906;2024-03-29T06:16:16;15.52;;;6.35;;
84500;SDS011;74725;44.210;17.906;2024-03-29T06:19:00;16.52;;;6.65;;
84500;SDS011;74725;44.210;17.906;2024-03-29T06:21:26;13.63;;;6.53;;
84500;SDS011;74725;44.210;17.906;2024-03-29T06:23:52;17.58;;;6.38;;
84500;SDS011;74725;44.210;17.906;2024-03-29T06:26:20;11.05;;;4.88;;
84500;SDS011;74725;44.210;17.906;2024-03-29T06:28:51;12.23;;;5.03;;
84500;SDS011;74725;44.210;17.906;2024-03-29T06:31:17;11.07;;;5.25;;
84500;SDS011;74725;44.210;17.906;2024-03-29T06:33:42;11.18;;;4.28;;
84500;SDS011;74725;44.210;17.906;2024-03-29T06:36:08;11.50;;;4.75;;
84500;SDS011;74725;44.210;17.906;2024-03-29T06:38:34;15.18;;;4.55;;
84500;SDS011;74725;44.210;17.906;2024-03-29T06:41:00;9.60;;;4.70;;
84500;SDS011;74725;44.210;17.906;2024-03-29T06:43:25;9.68;;;5.03;;
84500;SDS011;74725;44.210;17.906;2024-03-29T06:45:51;11.30;;;5.10;;
84500;SDS011;74725;44.210;17.906;2024-03-29T06:48:16;14.10;;;5.32;;
84500;SDS011;74725;44.210;17.906;2024-03-29T06:50:42;10.98;;;4.50;;
84500;SDS011;74725;44.210;17.906;2024-03-29T06:53:07;15.13;;;4.28;;
84500;SDS011;74725;44.210;17.906;2024-03-29T06:55:34;12.85;;;5.32;;
84500;SDS011;74725;44.210;17.906;2024-03-29T06:58:05;8.52;;;3.90;;
84500;SDS011;74725;44.210;17.906;2024-03-29T07:00:31;9.57;;;3.67;;
84500;SDS011;74725;44.210;17.906;2024-03-29T07:02:57;11.52;;;3.33;;
84500;SDS011;74725;44.210;17.906;2024-03-29T07:05:32;9.73;;;3.30;;
84500;SDS011;74725;44.210;17.906;2024-03-29T07:07:59;7.15;;;3.38;;
84500;SDS011;74725;44.210;17.906;2024-03-29T07:10:26;9.63;;;3.50;;
84500;SDS011;74725;44.210;17.906;2024-03-29T07:12:52;10.70;;;3.40;;
84500;SDS011;74725;44.210;17.906;2024-03-29T07:15:17;9.88;;;3.28;;
84500;SDS011;74725;44.210;17.906;2024-03-29T07:17:43;8.50;;;3.08;;
84500;SDS011;74725;44.210;17.906;2024-03-29T07:20:09;7.15;;;2.80;;
84500;SDS011;74725;44.210;17.906;2024-03-29T07:22:35;9.57;;;3.22;;
84500;SDS011;74725;44.210;17.906;2024-03-29T07:25:01;8.95;;;3.63;;
84500;SDS011;74725;44.210;17.906;2024-03-29T07:27:26;8.68;;;3.10;;
84500;SDS011;74725;44.210;17.906;2024-03-29T07:29:55;9.48;;;2.90;;
84500;SDS011;74725;44.210;17.906;2024-03-29T07:32:20;13.27;;;3.70;;
84500;SDS011;74725;44.210;17.906;2024-03-29T07:34:46;12.02;;;3.45;;
84500;SDS011;74725;44.210;17.906;2024-03-29T07:37:11;10.05;;;3.20;;
84500;SDS011;74725;44.210;17.906;2024-03-29T07:39:44;7.65;;;2.90;;
84500;SDS011;74725;44.210;17.906;2024-03-29T07:42:14;11.48;;;2.97;;
84500;SDS011;74725;44.210;17.906;2024-03-29T07:44:45;9.40;;;3.10;;
84500;SDS011;74725;44.210;17.906;2024-03-29T07:47:10;9.05;;;2.65;;
84500;SDS011;74725;44.210;17.906;2024-03-29T07:49:38;9.82;;;2.85;;
84500;SDS011;74725;44.210;17.906;2024-03-29T07:52:05;7.43;;;2.20;;
84500;SDS011;74725;44.210;17.906;2024-03-29T07:54:32;5.88;;;2.70;;
84500;SDS011;74725;44.210;17.906;2024-03-29T07:56:58;7.65;;;2.70;;
84500;SDS011;74725;44.210;17.906;2024-03-29T07:59:23;6.88;;;2.80;;
84500;SDS011;74725;44.210;17.906;2024-03-29T08:01:49;6.55;;;2.40;;
84500;SDS011;74725;44.210;17.906;2024-03-29T08:04:17;10.80;;;2.55;;
84500;SDS011;74725;44.210;17.906;2024-03-29T08:06:43;11.45;;;2.72;;
84500;SDS011;74725;44.210;17.906;2024-03-29T08:09:08;8.50;;;2.60;;
84500;SDS011;74725;44.210;17.906;2024-03-29T08:11:35;6.40;;;2.40;;
84500;SDS011;74725;44.210;17.906;2024-03-29T08:14:01;8.65;;;2.17;;
84500;SDS011;74725;44.210;17.906;2024-03-29T08:16:27;6.78;;;2.40;;
84500;SDS011;74725;44.210;17.906;2024-03-29T08:18:53;8.88;;;2.50;;
84500;SDS011;74725;44.210;17.906;2024-03-29T08:21:18;7.75;;;2.50;;
84500;SDS011;74725;44.210;17.906;2024-03-29T08:23:44;8.55;;;2.88;;
84500;SDS011;74725;44.210;17.906;2024-03-29T08:26:17;8.95;;;2.83;;
84500;SDS011;74725;44.210;17.906;2024-03-29T08:28:47;7.93;;;2.10;;
84500;SDS011;74725;44.210;17.906;2024-03-29T08:31:13;8.77;;;2.45;;
84500;SDS011;74725;44.210;17.906;2024-03-29T08:33:39;9.77;;;2.20;;
84500;SDS011;74725;44.210;17.906;2024-03-29T08:36:12;7.97;;;2.33;;
84500;SDS011;74725;44.210;17.906;2024-03-29T08:38:43;7.45;;;2.50;;
84500;SDS011;74725;44.210;17.906;2024-03-29T08:41:11;7.50;;;2.10;;
84500;SDS011;74725;44.210;17.906;2024-03-29T08:43:37;4.85;;;2.15;;
84500;SDS011;74725;44.210;17.906;2024-03-29T08:46:03;4.97;;;2.28;;
84500;SDS011;74725;44.210;17.906;2024-03-29T08:48:28;9.00;;;2.20;;
84500;SDS011;74725;44.210;17.906;2024-03-29T08:50:54;6.47;;;2.05;;
84500;SDS011;74725;44.210;17.906;2024-03-29T08:53:20;9.25;;;2.42;;
84500;SDS011;74725;44.210;17.906;2024-03-29T08:55:50;5.75;;;2.00;;
84500;SDS011;74725;44.210;17.906;2024-03-29T08:58:16;9.70;;;2.60;;
84500;SDS011;74725;44.210;17.906;2024-03-29T09:00:51;6.60;;;2.22;;
84500;SDS011;74725;44.210;17.906;2024-03-29T09:03:18;11.20;;;2.75;;
84500;SDS011;74725;44.210;17.906;2024-03-29T09:05:43;11.00;;;2.65;;
84500;SDS011;74725;44.210;17.906;2024-03-29T09:08:09;9.07;;;2.90;;
84500;SDS011;74725;44.210;17.906;2024-03-29T09:10:35;7.60;;;2.10;;
84500;SDS011;74725;44.210;17.906;2024-03-29T09:13:00;5.95;;;2.42;;
84500;SDS011;74725;44.210;17.906;2024-03-29T09:15:26;4.82;;;2.20;;
84500;SDS011;74725;44.210;17.906;2024-03-29T09:17:51;8.77;;;2.08;;
84500;SDS011;74725;44.210;17.906;2024-03-29T09:20:20;6.77;;;1.93;;
84500;SDS011;74725;44.210;17.906;2024-03-29T09:22:46;9.02;;;2.30;;
84500;SDS011;74725;44.210;17.906;2024-03-29T09:25:14;9.95;;;2.80;;
84500;SDS011;74725;44.210;17.906;2024-03-29T09:27:40;9.00;;;2.70;;
84500;SDS011;74725;44.210;17.906;2024-03-29T09:30:08;7.45;;;2.50;;
84500;SDS011;74725;44.210;17.906;2024-03-29T09:32:36;6.40;;;2.28;;
84500;SDS011;74725;44.210;17.906;2024-03-29T09:35:02;5.30;;;2.13;;
84500;SDS011;74725;44.210;17.906;2024-03-29T09:37:27;10.75;;;2.83;;
84500;SDS011;74725;44.210;17.906;2024-03-29T09:39:53;11.10;;;3.72;;
84500;SDS011;74725;44.210;17.906;2024-03-29T09:42:19;6.00;;;2.28;;
84500;SDS011;74725;44.210;17.906;2024-03-29T09:44:47;6.40;;;2.70;;
84500;SDS011;74725;44.210;17.906;2024-03-29T09:47:17;8.55;;;2.47;;
84500;SDS011;74725;44.210;17.906;2024-03-29T09:49:46;6.18;;;2.40;;
84500;SDS011;74725;44.210;17.906;2024-03-29T09:52:15;8.88;;;3.00;;
84500;SDS011;74725;44.210;17.906;2024-03-29T09:54:41;4.72;;;2.10;;
84500;SDS011;74725;44.210;17.906;2024-03-29T09:57:07;4.80;;;2.25;;
84500;SDS011;74725;44.210;17.906;2024-03-29T09:59:33;10.60;;;2.33;;
84500;SDS011;74725;44.210;17.906;2024-03-29T10:02:00;7.45;;;2.97;;
84500;SDS011;74725;44.210;17.906;2024-03-29T10:04:29;12.68;;;3.03;;
84500;SDS011;74725;44.210;17.906;2024-03-29T10:06:56;9.65;;;2.60;;
84500;SDS011;74725;44.210;17.906;2024-03-29T10:09:23;9.10;;;2.40;;
84500;SDS011;74725;44.210;17.906;2024-03-29T10:11:52;7.22;;;2.42;;
84500;SDS011;74725;44.210;17.906;2024-03-29T10:14:18;8.55;;;2.20;;
84500;SDS011;74725;44.210;17.906;2024-03-29T10:16:44;5.90;;;2.28;;
84500;SDS011;74725;44.210;17.906;2024-03-29T10:19:11;11.13;;;3.20;;
84500;SDS011;74725;44.210;17.906;2024-03-29T10:21:37;10.90;;;3.40;;
84500;SDS011;74725;44.210;17.906;2024-03-29T10:24:15;7.70;;;2.67;;
84500;SDS011;74725;44.210;17.906;2024-03-29T10:26:45;8.50;;;2.45;;
84500;SDS011;74725;44.210;17.906;2024-03-29T10:29:11;9.30;;;3.10;;
84500;SDS011;74725;44.210;17.906;2024-03-29T10:31:37;8.48;;;2.90;;
84500;SDS011;74725;44.210;17.906;2024-03-29T10:34:05;7.53;;;2.60;;
84500;SDS011;74725;44.210;17.906;2024-03-29T10:36:32;10.18;;;2.50;;
84500;SDS011;74725;44.210;17.906;2024-03-29T10:39:02;8.93;;;2.58;;
84500;SDS011;74725;44.210;17.906;2024-03-29T10:41:49;10.02;;;2.38;;
84500;SDS011;74725;44.210;17.906;2024-03-29T10:44:16;10.50;;;2.72;;
84500;SDS011;74725;44.210;17.906;2024-03-29T10:46:45;6.45;;;2.13;;
84500;SDS011;74725;44.210;17.906;2024-03-29T10:49:13;8.93;;;2.40;;
84500;SDS011;74725;44.210;17.906;2024-03-29T10:51:42;11.43;;;2.90;;
84500;SDS011;74725;44.210;17.906;2024-03-29T10:54:08;9.85;;;2.65;;
84500;SDS011;74725;44.210;17.906;2024-03-29T10:56:35;9.82;;;2.35;;
84500;SDS011;74725;44.210;17.906;2024-03-29T10:59:47;6.57;;;1.77;;
84500;SDS011;74725;44.210;17.906;2024-03-29T11:02:04;8.23;;;2.28;;
84500;SDS011;74725;44.210;17.906;2024-03-29T11:04:38;7.25;;;2.13;;
84500;SDS011;74725;44.210;17.906;2024-03-29T11:07:06;7.25;;;2.17;;
84500;SDS011;74725;44.210;17.906;2024-03-29T11:09:35;12.68;;;2.33;;
84500;SDS011;74725;44.210;17.906;2024-03-29T11:12:03;11.07;;;2.55;;
84500;SDS011;74725;44.210;17.906;2024-03-29T11:14:40;8.63;;;2.40;;
84500;SDS011;74725;44.210;17.906;2024-03-29T11:17:18;16.75;;;3.15;;
84500;SDS011;74725;44.210;17.906;2024-03-29T11:19:47;9.02;;;2.55;;
84500;SDS011;74725;44.210;17.906;2024-03-29T11:22:13;7.50;;;2.33;;
84500;SDS011;74725;44.210;17.906;2024-03-29T11:24:39;4.82;;;2.30;;
84500;SDS011;74725;44.210;17.906;2024-03-29T11:27:11;10.38;;;2.22;;
84500;SDS011;74725;44.210;17.906;2024-03-29T11:29:41;9.35;;;2.60;;
84500;SDS011;74725;44.210;17.906;2024-03-29T11:32:09;8.20;;;2.63;;
84500;SDS011;74725;44.210;17.906;2024-03-29T11:34:42;8.55;;;2.30;;
84500;SDS011;74725;44.210;17.906;2024-03-29T11:37:09;9.18;;;2.90;;
84500;SDS011;74725;44.210;17.906;2024-03-29T11:39:36;8.20;;;2.50;;
84500;SDS011;74725;44.210;17.906;2024-03-29T11:42:02;12.55;;;2.28;;
84500;SDS011;74725;44.210;17.906;2024-03-29T11:44:28;9.20;;;2.50;;
84500;SDS011;74725;44.210;17.906;2024-03-29T11:46:57;8.45;;;2.95;;
84500;SDS011;74725;44.210;17.906;2024-03-29T11:49:24;6.72;;;2.53;;
84500;SDS011;74725;44.210;17.906;2024-03-29T11:51:50;11.13;;;2.58;;
84500;SDS011;74725;44.210;17.906;2024-03-29T11:54:15;14.63;;;3.25;;
84500;SDS011;74725;44.210;17.906;2024-03-29T11:56:44;9.05;;;2.90;;
84500;SDS011;74725;44.210;17.906;2024-03-29T11:59:09;10.60;;;2.70;;
84500;SDS011;74725;44.210;17.906;2024-03-29T12:01:35;8.85;;;2.40;;
84500;SDS011;74725;44.210;17.906;2024-03-29T12:04:04;7.60;;;2.53;;
84500;SDS011;74725;44.210;17.906;2024-03-29T12:06:30;6.90;;;2.47;;
84500;SDS011;74725;44.210;17.906;2024-03-29T12:08:56;5.47;;;2.30;;
84500;SDS011;74725;44.210;17.906;2024-03-29T12:11:22;7.90;;;2.33;;
84500;SDS011;74725;44.210;17.906;2024-03-29T12:13:48;8.02;;;3.03;;
84500;SDS011;74725;44.210;17.906;2024-03-29T12:16:14;6.55;;;2.40;;
84500;SDS011;74725;44.210;17.906;2024-03-29T12:18:40;10.30;;;2.70;;
84500;SDS011;74725;44.210;17.906;2024-03-29T12:21:05;8.45;;;2.35;;
84500;SDS011;74725;44.210;17.906;2024-03-29T12:23:31;8.98;;;2.50;;
84500;SDS011;74725;44.210;17.906;2024-03-29T12:25:57;6.07;;;2.08;;
84500;SDS011;74725;44.210;17.906;2024-03-29T12:28:26;8.52;;;2.10;;
84500;SDS011;74725;44.210;17.906;2024-03-29T12:30:53;12.52;;;3.03;;
84500;SDS011;74725;44.210;17.906;2024-03-29T12:33:20;12.85;;;4.22;;
84500;SDS011;74725;44.210;17.906;2024-03-29T12:35:48;10.88;;;3.50;;
84500;SDS011;74725;44.210;17.906;2024-03-29T12:38:16;15.35;;;3.70;;
84500;SDS011;74725;44.210;17.906;2024-03-29T12:40:43;8.50;;;2.92;;
84500;SDS011;74725;44.210;17.906;2024-03-29T12:43:10;8.50;;;2.55;;
84500;SDS011;74725;44.210;17.906;2024-03-29T12:45:37;8.77;;;3.47;;
84500;SDS011;74725;44.210;17.906;2024-03-29T12:48:11;7.95;;;2.70;;
84500;SDS011;74725;44.210;17.906;2024-03-29T12:50:39;7.68;;;2.35;;
84500;SDS011;74725;44.210;17.906;2024-03-29T12:53:06;7.88;;;2.90;;
84500;SDS011;74725;44.210;17.906;2024-03-29T12:55:33;8.10;;;2.40;;
84500;SDS011;74725;44.210;17.906;2024-03-29T12:58:01;7.78;;;2.40;;
84500;SDS011;74725;44.210;17.906;2024-03-29T13:00:30;9.43;;;2.40;;
84500;SDS011;74725;44.210;17.906;2024-03-29T13:02:56;4.85;;;2.20;;
84500;SDS011;74725;44.210;17.906;2024-03-29T13:05:21;3.05;;;1.75;;
84500;SDS011;74725;44.210;17.906;2024-03-29T13:07:47;5.70;;;1.75;;
84500;SDS011;74725;44.210;17.906;2024-03-29T13:10:13;7.13;;;1.95;;
84500;SDS011;74725;44.210;17.906;2024-03-29T13:12:43;5.53;;;1.90;;
84500;SDS011;74725;44.210;17.906;2024-03-29T13:15:18;9.88;;;2.92;;
84500;SDS011;74725;44.210;17.906;2024-03-29T13:17:45;8.55;;;2.30;;
84500;SDS011;74725;44.210;17.906;2024-03-29T13:20:12;7.78;;;2.30;;
84500;SDS011;74725;44.210;17.906;2024-03-29T13:22:40;7.80;;;2.67;;
84500;SDS011;74725;44.210;17.906;2024-03-29T13:25:08;6.85;;;3.20;;
84500;SDS011;74725;44.210;17.906;2024-03-29T13:27:36;6.07;;;2.80;;
84500;SDS011;74725;44.210;17.906;2024-03-29T13:30:02;7.75;;;3.40;;
84500;SDS011;74725;44.210;17.906;2024-03-29T13:32:30;8.23;;;3.30;;
84500;SDS011;74725;44.210;17.906;2024-03-29T13:34:58;7.30;;;2.80;;
84500;SDS011;74725;44.210;17.906;2024-03-29T13:37:25;8.63;;;2.78;;
84500;SDS011;74725;44.210;17.906;2024-03-29T13:39:52;8.05;;;2.55;;
84500;SDS011;74725;44.210;17.906;2024-03-29T13:42:21;9.32;;;3.90;;
84500;SDS011;74725;44.210;17.906;2024-03-29T13:44:51;11.07;;;3.03;;
84500;SDS011;74725;44.210;17.906;2024-03-29T13:47:18;9.20;;;3.00;;
84500;SDS011;74725;44.210;17.906;2024-03-29T13:49:44;5.57;;;2.30;;
84500;SDS011;74725;44.210;17.906;2024-03-29T13:52:11;5.45;;;2.67;;
84500;SDS011;74725;44.210;17.906;2024-03-29T13:54:37;8.77;;;2.40;;
84500;SDS011;74725;44.210;17.906;2024-03-29T13:57:03;7.30;;;2.45;;
84500;SDS011;74725;44.210;17.906;2024-03-29T13:59:29;12.65;;;3.50;;
84500;SDS011;74725;44.210;17.906;2024-03-29T14:01:55;6.13;;;2.30;;
84500;SDS011;74725;44.210;17.906;2024-03-29T14:04:22;6.20;;;2.53;;
84500;SDS011;74725;44.210;17.906;2024-03-29T14:06:48;12.73;;;3.17;;
84500;SDS011;74725;44.210;17.906;2024-03-29T14:09:14;7.57;;;2.50;;
84500;SDS011;74725;44.210;17.906;2024-03-29T14:11:40;8.27;;;3.33;;
84500;SDS011;74725;44.210;17.906;2024-03-29T14:14:05;7.43;;;2.53;;
84500;SDS011;74725;44.210;17.906;2024-03-29T14:16:33;6.90;;;2.53;;
84500;SDS011;74725;44.210;17.906;2024-03-29T14:19:01;9.10;;;2.67;;
84500;SDS011;74725;44.210;17.906;2024-03-29T14:21:26;7.93;;;2.72;;
84500;SDS011;74725;44.210;17.906;2024-03-29T14:23:52;7.22;;;2.78;;
84500;SDS011;74725;44.210;17.906;2024-03-29T14:26:19;9.90;;;2.70;;
84500;SDS011;74725;44.210;17.906;2024-03-29T14:28:45;8.57;;;2.63;;
84500;SDS011;74725;44.210;17.906;2024-03-29T14:31:10;8.75;;;2.95;;
84500;SDS011;74725;44.210;17.906;2024-03-29T14:33:36;6.25;;;2.20;;
84500;SDS011;74725;44.210;17.906;2024-03-29T14:36:02;9.05;;;2.45;;